Weather at Claresholm Industrial Airport

Public forecast

Using degrees Celsius for public forecast. Weather courtesy of forecast.io.

Closest aviation weather report (METAR) to Claresholm Industrial Airport

Closest report is Pincher Creek Airport, 32.4 nm (59.9 km) SSW.

2024/05/18 20:00 (retrieved 44 minutes ago)

CZPC 182000Z AUTO 24016G21KT 9SM BKN150 BKN180 10/M01 A2981 RMK SLP115 DENSITY ALT 4300FT

Closest aviation forecast (TAF) to Claresholm Industrial Airport

Closest forecast is Lethbridge County Airport, 39.2 nm (72.7 km) SE.

2024/05/18 18:42 (retrieved 2 hours ago)

TAF CYQL 181740Z 1818/1906 25010KT P6SM FEW040 FM181900 25010KT P6SM BKN070 TEMPO 1819/1902 P6SM -SHRA VCTS BKN050CB FM190200 23008KT P6SM SCT080 TEMPO 1902/1906 BKN080 RMK NXT FCST BY 190000Z